Trimont, Minnesota
Current Conditions -  °F | °C
As of 11:33 PM on Saturday 25 Oct 2014 (Local Time) from KMJQ Reporting Station
Scattered Clouds Scattered Clouds  
Wind Chill: 43°   Ceiling: Unl
Heat Index: 43°   Visibility: 10mi
Dew Point: 32°   Wind: 3mph
Humidity: 66%   Direction: 170°S
Pressure: 30.07"   Gusts: NA
Location:  43.76°N, 94.71°W
Report Text: KMJQ 260433Z AUTO 17003KT 10SM SCT110 06/00 A3007 RMK AO2
Loading
Personal Weather Stations






























Interactive Weather Map
Tropical Storm Tracking
New forecast layout! Learn more

10-Day Weather Forecast

Advertisements
Track Severe Weather on mobile